createdAt,value
2022-08-26T00:00:18.468Z,9.9
2022-08-26T00:02:22.637Z,9.6
2022-08-26T00:04:26.763Z,9.6
2022-08-26T00:06:30.912Z,9.7
2022-08-26T00:08:38.009Z,10.5
2022-08-26T00:10:42.209Z,9.3
2022-08-26T00:12:46.270Z,9.1
2022-08-26T00:14:52.361Z,7.7
2022-08-26T00:16:55.178Z,9.7
2022-08-26T00:29:22.456Z,7.9
2022-08-26T00:35:34.729Z,6.1
2022-08-26T00:37:41.881Z,8.1
2022-08-26T00:48:02.552Z,7
2022-08-26T00:56:22.081Z,8.4
2022-08-26T01:02:54.276Z,7.5
2022-08-26T01:05:01.342Z,7.9
2022-08-26T01:11:13.733Z,8.8
2022-08-26T01:13:17.861Z,7.7
2022-08-26T01:15:22.012Z,8.6
2022-08-26T01:17:26.128Z,8.4
2022-08-26T01:19:33.297Z,8.7
2022-08-26T01:21:40.771Z,9.5
2022-08-26T01:23:41.576Z,8.5
2022-08-26T01:25:45.679Z,7
2022-08-26T01:27:49.997Z,7.1
2022-08-26T01:29:53.951Z,7.9
2022-08-26T01:31:58.167Z,8.3
2022-08-26T01:34:05.226Z,8.6
2022-08-26T01:36:09.354Z,7.8
2022-08-26T01:42:21.732Z,6.9
2022-08-26T01:50:41.288Z,6.6
2022-08-26T01:53:48.999Z,7.5
2022-08-26T01:55:53.133Z,6.8
2022-08-26T01:57:57.259Z,5.7
2022-08-26T02:00:01.420Z,6.2
2022-08-26T02:02:08.562Z,5.6
2022-08-26T02:06:16.828Z,4.8
2022-08-26T02:08:24.641Z,5.3
2022-08-26T02:10:25.093Z,3.8
2022-08-26T02:12:29.987Z,5.5
2022-08-26T02:14:33.385Z,4.4
2022-08-26T02:16:42.301Z,4.1
2022-08-26T02:18:44.628Z,4.7
2022-08-26T02:22:52.919Z,3.8
2022-08-26T02:24:57.051Z,3.4
2022-08-26T02:27:01.167Z,3.4
2022-08-26T02:29:05.317Z,3.1
2022-08-26T02:37:24.896Z,2.5
2022-08-26T02:41:33.129Z,2
2022-08-26T02:43:37.270Z,2.6
2022-08-26T02:45:44.417Z,2.4
2022-08-26T02:49:54.209Z,2.2
2022-08-26T02:50:57.781Z,2.6
2022-08-26T02:53:01.954Z,1.7
2022-08-26T02:55:06.047Z,2.3
2022-08-26T02:57:10.198Z,1.5
2022-08-26T02:59:17.336Z,2.5
2022-08-26T03:01:21.522Z,2.4
2022-08-26T03:03:25.633Z,2.6
2022-08-26T03:05:29.743Z,1.9
2022-08-26T03:07:33.881Z,2.5
2022-08-26T03:09:38.017Z,1.7
2022-08-26T03:11:42.155Z,1.7
2022-08-26T03:13:49.310Z,1.9
2022-08-26T03:15:53.462Z,1.8
2022-08-26T03:22:05.807Z,1.1
2022-08-26T03:26:14.058Z,1.8
2022-08-26T03:30:25.342Z,1.9
2022-08-26T03:32:29.476Z,1.6
2022-08-26T03:34:33.607Z,1.8
2022-08-26T03:38:41.868Z,1.6
2022-08-26T03:40:45.991Z,1.4
2022-08-26T03:42:53.135Z,1.8
2022-08-26T03:44:57.288Z,1.6
2022-08-26T03:47:01.397Z,1.6
2022-08-26T03:48:04.985Z,1.7
2022-08-26T03:50:09.091Z,1.6
2022-08-26T03:52:13.236Z,2.3
2022-08-26T03:54:17.375Z,1.8
2022-08-26T03:56:24.519Z,1.5
2022-08-26T03:58:28.663Z,1.4
2022-08-26T04:02:36.961Z,1.1
2022-08-26T04:06:45.217Z,1.3
2022-08-26T04:08:49.356Z,1.2
2022-08-26T04:10:56.493Z,1.7
2022-08-26T04:15:04.755Z,1
2022-08-26T04:17:08.883Z,1.1
2022-08-26T04:21:17.144Z,1.5
2022-08-26T04:23:21.281Z,1.2
2022-08-26T04:37:53.173Z,2.1
2022-08-26T04:42:04.463Z,0.6
2022-08-26T04:44:08.597Z,1.7
2022-08-26T04:46:30.867Z,1.3
2022-08-26T04:48:34.935Z,1.1
2022-08-26T04:56:54.466Z,0.7
2022-08-26T05:03:07.043Z,0.8
2022-08-26T05:05:10.984Z,1.1
2022-08-26T05:07:18.130Z,1.3
2022-08-26T05:11:26.366Z,0.8
2022-08-26T05:17:38.753Z,0.9
2022-08-26T05:21:50.043Z,1.1
2022-08-26T05:23:54.213Z,0.9
2022-08-26T05:28:09.146Z,0.7
2022-08-26T05:30:06.560Z,1.2
2022-08-26T05:32:11.258Z,1.3
2022-08-26T05:34:14.780Z,0.8
2022-08-26T05:36:21.933Z,1.8
2022-08-26T05:38:30.203Z,0.6
2022-08-26T05:40:30.304Z,0.8
2022-08-26T05:41:36.776Z,0.7
2022-08-26T05:49:53.333Z,1
2022-08-26T05:51:57.422Z,0.9
2022-08-26T05:54:01.558Z,0.7
2022-08-26T05:56:05.676Z,1.2
2022-08-26T06:00:13.915Z,0.6
2022-08-26T06:02:18.093Z,0.5
2022-08-26T06:04:27.672Z,1.2
2022-08-26T06:08:33.464Z,1.3
2022-08-26T06:14:45.820Z,0.8
2022-08-26T06:16:49.932Z,0.6
2022-08-26T06:21:02.100Z,1
2022-08-26T06:23:05.442Z,0.4
2022-08-26T06:25:09.955Z,0.6
2022-08-26T06:27:13.869Z,0.6
2022-08-26T06:29:24.710Z,0.5
2022-08-26T06:31:21.986Z,0.6
2022-08-26T06:33:28.988Z,0.7
2022-08-26T06:35:33.100Z,1.4
2022-08-26T06:37:37.203Z,0.6
2022-08-26T06:38:40.804Z,0.7
2022-08-26T06:40:44.904Z,0.6
2022-08-26T06:44:53.152Z,0.7
2022-08-26T06:47:00.304Z,0.7
2022-08-26T06:49:04.435Z,1.5
2022-08-26T06:51:08.535Z,0.7
2022-08-26T06:57:20.935Z,0.5
2022-08-26T06:59:25.027Z,0.7
2022-08-26T07:01:32.274Z,0.8
2022-08-26T07:03:39.746Z,0.4
2022-08-26T07:05:40.442Z,0.6
2022-08-26T07:11:52.820Z,0.5
2022-08-26T07:22:16.466Z,0.6
2022-08-26T07:26:24.919Z,0.4
2022-08-26T07:28:28.832Z,0.5
2022-08-26T07:30:36.095Z,0.6
2022-08-26T07:32:40.114Z,0.4
2022-08-26T07:34:44.210Z,0.7
2022-08-26T07:39:56.069Z,0.6
2022-08-26T07:42:00.152Z,0.8
2022-08-26T07:46:16.300Z,0.5
2022-08-26T07:48:15.560Z,0.7
2022-08-26T07:50:19.731Z,0.6
2022-08-26T07:52:26.761Z,0.5
2022-08-26T07:54:27.908Z,0.3
2022-08-26T07:56:32.011Z,0.8
2022-08-26T07:58:39.186Z,0.6
2022-08-26T08:00:43.279Z,1.2
2022-08-26T08:02:47.415Z,0.7
2022-08-26T08:04:51.531Z,0.6
2022-08-26T08:06:55.625Z,0.4
2022-08-26T08:08:59.761Z,0.4
2022-08-26T08:11:03.882Z,0.5
2022-08-26T08:13:11.011Z,0.6
2022-08-26T08:15:15.144Z,0.7
2022-08-26T08:17:19.266Z,0.6
2022-08-26T08:19:23.807Z,0.3
2022-08-26T08:21:27.484Z,0.3
2022-08-26T08:25:35.700Z,0.4
2022-08-26T08:29:46.974Z,0.6
2022-08-26T08:31:58.493Z,0.9
2022-08-26T08:34:15.535Z,0.6
2022-08-26T08:40:31.032Z,0.6
2022-08-26T08:44:40.699Z,0.6
2022-08-26T08:46:44.766Z,0.5
2022-08-26T08:48:48.899Z,0.4
2022-08-26T08:50:53.003Z,0.8
2022-08-26T08:52:57.108Z,0.3
2022-08-26T08:57:08.530Z,0.9
2022-08-26T08:59:12.481Z,0.6
2022-08-26T09:03:20.699Z,0.5
2022-08-26T09:07:30.456Z,0.7
2022-08-26T09:09:36.090Z,0.6
2022-08-26T09:11:40.198Z,1.4
2022-08-26T09:15:48.418Z,0.4
2022-08-26T09:19:56.645Z,0.9
2022-08-26T09:24:07.927Z,0.9
2022-08-26T09:26:12.024Z,0.7
2022-08-26T09:28:16.135Z,0.7
2022-08-26T09:37:39.276Z,0.7
2022-08-26T09:39:43.359Z,0.6
2022-08-26T09:41:47.412Z,0.7
2022-08-26T09:43:51.556Z,0.4
2022-08-26T09:45:59.199Z,0.6
2022-08-26T09:48:06.475Z,0.4
2022-08-26T09:50:03.894Z,0.5
2022-08-26T09:52:11.004Z,1
2022-08-26T09:54:15.101Z,0.6
2022-08-26T09:56:19.235Z,1.2
2022-08-26T09:58:23.328Z,0.4
2022-08-26T10:00:27.468Z,0.6
2022-08-26T10:02:31.569Z,0.5
2022-08-26T10:04:35.700Z,0.4
2022-08-26T10:08:47.827Z,0.6
2022-08-26T10:10:53.376Z,0.4
2022-08-26T10:14:59.320Z,0.6
2022-08-26T10:17:03.464Z,0.6
2022-08-26T10:19:07.523Z,0.7
2022-08-26T10:21:14.657Z,0.6
2022-08-26T10:23:18.773Z,0.4
2022-08-26T10:26:26.469Z,1.1
2022-08-26T10:28:30.559Z,0.6
2022-08-26T10:32:40.848Z,0.6
2022-08-26T10:34:46.001Z,0.4
2022-08-26T10:37:15.548Z,0.7
2022-08-26T10:38:54.166Z,0.6
2022-08-26T10:40:58.275Z,0.7
2022-08-26T10:43:05.906Z,0.3
2022-08-26T10:45:06.503Z,0.7
2022-08-26T10:47:10.587Z,0.2
2022-08-26T10:49:17.737Z,0.5
2022-08-26T10:55:30.080Z,0.5
2022-08-26T10:59:38.289Z,0.6
2022-08-26T11:01:42.453Z,0.6
2022-08-26T11:03:49.562Z,0.3
2022-08-26T11:05:53.641Z,0.3
2022-08-26T11:07:57.757Z,0.8
2022-08-26T11:10:01.877Z,0.8
2022-08-26T11:12:10.204Z,0.6
2022-08-26T11:14:10.120Z,0.4
2022-08-26T11:16:14.270Z,0.6
2022-08-26T11:18:21.507Z,0.5
2022-08-26T11:20:25.450Z,0.5
2022-08-26T11:22:29.556Z,0.4
2022-08-26T11:27:41.334Z,0.5
2022-08-26T11:31:52.632Z,0.3
2022-08-26T11:33:56.711Z,0.5
2022-08-26T11:36:00.825Z,0.2
2022-08-26T11:38:04.941Z,0.6
2022-08-26T11:40:09.127Z,0.6
2022-08-26T11:42:13.151Z,0.1
2022-08-26T11:44:17.266Z,0.7
2022-08-26T11:46:24.417Z,0.9
2022-08-26T11:48:28.529Z,0.2
2022-08-26T11:50:32.673Z,0.3
2022-08-26T11:52:36.749Z,0.4
2022-08-26T11:54:43.134Z,0.7
2022-08-26T11:56:44.957Z,0.4
2022-08-26T11:58:49.067Z,0.4
2022-08-26T12:03:00.337Z,0.4
2022-08-26T12:05:04.524Z,0.4
2022-08-26T12:07:08.705Z,1.5
2022-08-26T12:09:12.671Z,0.4
2022-08-26T12:11:16.755Z,0.6
2022-08-26T12:13:20.883Z,0.3
2022-08-26T12:22:00.359Z,0.6
2022-08-26T12:24:04.430Z,0.5
2022-08-26T12:26:08.541Z,0.2
2022-08-26T12:28:15.695Z,0.4
2022-08-26T12:30:19.787Z,0.5
2022-08-26T12:32:23.907Z,0.3
2022-08-26T12:34:28.039Z,0.4
2022-08-26T12:36:32.153Z,0.2
2022-08-26T12:38:36.255Z,0.7
2022-08-26T12:40:40.353Z,0.2
2022-08-26T12:42:47.516Z,0.4
2022-08-26T12:44:54.193Z,0.3
2022-08-26T12:48:59.805Z,0.4
2022-08-26T12:51:03.954Z,0.9
2022-08-26T12:55:12.185Z,0.2
2022-08-26T13:03:31.679Z,0.2
2022-08-26T13:05:35.837Z,0.2
2022-08-26T13:07:39.897Z,0.3
2022-08-26T13:09:43.984Z,0.3
2022-08-26T13:11:51.131Z,0.5
2022-08-26T13:13:55.250Z,0.3
2022-08-26T13:15:59.396Z,0.4
2022-08-26T13:19:10.390Z,0.5
2022-08-26T13:21:11.119Z,0.5
2022-08-26T13:23:15.534Z,0.5
2022-08-26T13:25:22.365Z,0.4
2022-08-26T13:27:26.483Z,0.4
2022-08-26T13:29:30.804Z,0.5
2022-08-26T13:31:34.794Z,0.4
2022-08-26T13:33:38.815Z,0.4
2022-08-26T13:35:42.950Z,0.3
2022-08-26T13:37:47.033Z,0.2
2022-08-26T13:44:02.613Z,0.6
2022-08-26T13:46:06.557Z,0.4
2022-08-26T13:48:10.663Z,0.5
2022-08-26T13:50:14.732Z,0.3
2022-08-26T13:52:18.983Z,0.3
2022-08-26T13:54:26.021Z,0.4
2022-08-26T13:56:30.144Z,0.2
2022-08-26T13:58:34.244Z,0.3
2022-08-26T14:00:38.871Z,0.1
2022-08-26T14:02:42.522Z,0.2
2022-08-26T14:04:46.557Z,0.2
2022-08-26T14:06:50.744Z,0.3
2022-08-26T14:08:57.847Z,0.3
2022-08-26T14:11:01.937Z,0.2
2022-08-26T14:13:06.119Z,0.2
2022-08-26T14:14:09.632Z,0.3
2022-08-26T14:16:13.853Z,0.5
2022-08-26T14:22:29.059Z,0.5
2022-08-26T14:28:41.417Z,0.4
2022-08-26T14:30:45.529Z,0.3
2022-08-26T14:32:49.631Z,0.1
2022-08-26T14:34:53.745Z,0.2
2022-08-26T14:37:00.952Z,0.3
2022-08-26T14:39:05.050Z,0.4
2022-08-26T14:41:09.141Z,0.4
2022-08-26T14:45:18.858Z,0.3
2022-08-26T14:47:22.969Z,0.4
2022-08-26T14:53:38.340Z,0.7
2022-08-26T14:57:46.573Z,0.8
2022-08-26T14:59:50.687Z,0.4
2022-08-26T15:01:54.999Z,0.3
2022-08-26T15:03:58.889Z,0.6
2022-08-26T15:13:21.947Z,0.4
2022-08-26T15:17:30.225Z,0.9
2022-08-26T15:19:37.367Z,0.6
2022-08-26T15:21:41.442Z,0.2
2022-08-26T15:23:47.602Z,0.4
2022-08-26T15:25:49.707Z,0.6
2022-08-26T15:29:57.915Z,0.2
2022-08-26T15:32:02.078Z,0.3
2022-08-26T15:34:12.119Z,0.3
2022-08-26T15:36:13.366Z,0.4
2022-08-26T15:38:17.479Z,0.3
2022-08-26T15:40:22.066Z,0.7
2022-08-26T15:42:25.700Z,0.7
2022-08-26T15:44:29.799Z,0.1
2022-08-26T15:46:34.000Z,0.3
2022-08-26T15:48:41.101Z,0.4
2022-08-26T15:59:01.690Z,0.6
2022-08-26T16:01:05.785Z,0.1
2022-08-26T16:03:12.961Z,0.2
2022-08-26T16:05:17.039Z,0.3
2022-08-26T16:07:21.199Z,0.3
2022-08-26T16:18:08.342Z,0.3
2022-08-26T16:22:13.369Z,0.5
2022-08-26T16:24:17.531Z,0.3
2022-08-26T16:32:37.037Z,0.9
2022-08-26T16:34:47.100Z,0.7
2022-08-26T16:36:45.244Z,0.7
2022-08-26T16:38:49.390Z,0.7
2022-08-26T16:40:53.472Z,0.4
2022-08-26T16:42:57.613Z,1
2022-08-26T16:45:04.749Z,0.3
2022-08-26T16:47:08.870Z,0.2
2022-08-26T16:49:13.054Z,0.4
2022-08-26T17:04:50.216Z,0.5
2022-08-26T17:06:52.803Z,0.6
2022-08-26T17:08:56.704Z,0.6
2022-08-26T17:11:00.841Z,0.3
2022-08-26T17:13:08.071Z,0.5
2022-08-26T17:19:20.394Z,0.5
2022-08-26T17:21:24.441Z,0.7
2022-08-26T17:25:32.800Z,0.4
2022-08-26T17:27:39.833Z,0.4
2022-08-26T17:29:43.973Z,0.7
2022-08-26T17:33:53.739Z,0.3
2022-08-26T17:35:56.536Z,0.8
2022-08-26T17:38:00.461Z,0.5
2022-08-26T17:40:04.933Z,0.5
2022-08-26T17:42:11.719Z,0.5
2022-08-26T17:44:15.851Z,0.5
2022-08-26T17:46:20.059Z,0.5
2022-08-26T17:48:24.111Z,0.2
2022-08-26T17:50:28.228Z,0.6
2022-08-26T17:52:32.378Z,0.6
2022-08-26T17:54:36.486Z,0.8
2022-08-26T17:56:43.747Z,0.6
2022-08-26T17:58:51.042Z,0.5
2022-08-26T18:00:51.881Z,0.5
2022-08-26T18:01:55.586Z,0.8
2022-08-26T18:04:00.873Z,0.4
2022-08-26T18:06:03.724Z,0.4
2022-08-26T18:08:07.842Z,1
2022-08-26T18:10:15.045Z,1.2
2022-08-26T18:14:23.268Z,0.6
2022-08-26T18:16:27.469Z,0.3
2022-08-26T18:20:35.696Z,0.7
2022-08-26T18:28:55.200Z,1.1
2022-08-26T18:30:59.339Z,0.5
2022-08-26T18:33:03.522Z,0.2
2022-08-26T18:35:07.575Z,0.7
2022-08-26T18:39:18.867Z,0.8
2022-08-26T18:41:22.974Z,0.6
2022-08-26T18:43:27.094Z,0.4
2022-08-26T18:47:35.346Z,0.7
2022-08-26T18:49:39.475Z,0.7
2022-08-26T18:51:43.599Z,0.6
2022-08-26T18:53:50.777Z,0.8
2022-08-26T18:55:54.891Z,0.5
2022-08-26T18:57:59.004Z,0.6
2022-08-26T18:59:02.744Z,0.5
2022-08-26T19:05:14.949Z,0.6
2022-08-26T19:07:22.113Z,0.8
2022-08-26T19:09:26.304Z,0.7
2022-08-26T19:11:32.525Z,0.6
2022-08-26T19:13:34.491Z,0.6
2022-08-26T19:15:38.627Z,1
2022-08-26T19:17:42.748Z,0.4
2022-08-26T19:19:47.131Z,0.6
2022-08-26T19:21:54.017Z,0.6
2022-08-26T19:23:58.134Z,0.7
2022-08-26T19:26:02.280Z,0.5
2022-08-26T19:28:06.555Z,0.9
2022-08-26T19:30:10.531Z,0.8
2022-08-26T19:32:14.668Z,0.6
2022-08-26T19:34:20.936Z,0.7
2022-08-26T19:36:26.053Z,0.8
2022-08-26T19:40:34.310Z,0.8
2022-08-26T19:44:42.447Z,0.6
2022-08-26T19:46:46.588Z,1
2022-08-26T19:53:02.179Z,0.8
2022-08-26T19:55:06.168Z,0.8
2022-08-26T19:57:30.487Z,0.7
2022-08-26T19:59:34.389Z,0.9
2022-08-26T20:01:38.659Z,0.8
2022-08-26T20:03:45.754Z,1
2022-08-26T20:05:49.796Z,0.7
2022-08-26T20:07:53.935Z,1
2022-08-26T20:09:58.050Z,0.7
2022-08-26T20:12:02.239Z,1.1
2022-08-26T20:14:06.304Z,1
2022-08-26T20:18:17.574Z,1.1
2022-08-26T20:20:30.056Z,1
2022-08-26T20:22:25.869Z,1.5
2022-08-26T20:26:34.112Z,1
2022-08-26T20:28:38.239Z,1.3
2022-08-26T20:30:42.365Z,1.2
2022-08-26T20:34:53.631Z,1.1
2022-08-26T20:36:57.732Z,1
2022-08-26T20:41:07.725Z,0.9
2022-08-26T20:45:15.825Z,1
2022-08-26T20:47:22.960Z,1.2
2022-08-26T20:49:27.123Z,0.8
2022-08-26T20:51:31.207Z,1
2022-08-26T20:52:34.781Z,1.2
2022-08-26T20:54:38.924Z,1.8
2022-08-26T20:56:43.054Z,1.1
2022-08-26T21:00:54.415Z,2.6
2022-08-26T21:02:58.406Z,1.3
2022-08-26T21:05:02.666Z,0.6
2022-08-26T21:07:06.653Z,1.1
2022-08-26T21:11:14.911Z,1.1
2022-08-26T21:17:30.322Z,0.9
2022-08-26T21:19:34.466Z,1
2022-08-26T21:21:38.671Z,1.2
2022-08-26T21:23:42.724Z,1.3
2022-08-26T21:25:46.830Z,1.9
2022-08-26T21:27:50.985Z,1
2022-08-26T21:29:58.127Z,1.2
2022-08-26T21:32:02.263Z,1
2022-08-26T21:38:14.582Z,1
2022-08-26T21:40:18.804Z,0.7
2022-08-26T21:42:22.875Z,0.5
2022-08-26T21:44:30.005Z,1.4
2022-08-26T21:46:34.250Z,2.2
2022-08-26T21:48:38.249Z,1.4
2022-08-26T21:49:41.788Z,1.2
2022-08-26T21:51:45.942Z,0.9
2022-08-26T21:53:50.116Z,0.9
2022-08-26T21:55:54.163Z,1.1
2022-08-26T22:04:13.686Z,1.4
2022-08-26T22:08:23.489Z,0.9
2022-08-26T22:12:33.197Z,1
2022-08-26T22:18:45.620Z,1.2
2022-08-26T22:24:57.983Z,0.9
2022-08-26T22:27:05.087Z,1.8
2022-08-26T22:29:09.329Z,0.8
2022-08-26T22:31:13.362Z,1.1
2022-08-26T22:33:21.557Z,1.1
2022-08-26T22:35:28.716Z,1
2022-08-26T22:37:25.800Z,0.8
2022-08-26T22:39:29.863Z,1.1
2022-08-26T22:41:37.001Z,1.1
2022-08-26T22:43:41.085Z,1.3
2022-08-26T22:48:53.832Z,1.3
2022-08-26T22:57:12.430Z,1.4
2022-08-26T22:59:16.551Z,1
2022-08-26T23:01:20.839Z,0.9
2022-08-26T23:03:24.926Z,0.8
2022-08-26T23:07:33.041Z,1.3
2022-08-26T23:09:40.178Z,0.9
2022-08-26T23:11:44.266Z,2.2
2022-08-26T23:13:48.711Z,1.4
2022-08-26T23:15:52.508Z,1.2
2022-08-26T23:17:58.469Z,1.1
2022-08-26T23:20:00.771Z,1.2
2022-08-26T23:22:04.847Z,1.7
2022-08-26T23:24:12.032Z,1.3
2022-08-26T23:26:17.785Z,1.2
2022-08-26T23:28:20.267Z,1.2
2022-08-26T23:30:24.340Z,1.2
2022-08-26T23:32:28.463Z,1.5
2022-08-26T23:34:32.579Z,1.6
2022-08-26T23:36:36.740Z,1.2
2022-08-26T23:38:43.881Z,1.2
2022-08-26T23:45:16.646Z,1.7
2022-08-26T23:47:20.781Z,1.3
2022-08-26T23:49:24.841Z,1.6
2022-08-26T23:51:32.023Z,1.1
2022-08-26T23:53:36.112Z,1.6
2022-08-26T23:55:40.264Z,1.5
2022-08-26T23:57:44.350Z,1.1
2022-08-26T23:59:48.503Z,1.3
